createdAt,value
2023-02-19T00:01:48.515Z,2.80
2023-02-19T00:04:18.876Z,2.78
2023-02-19T00:06:49.822Z,3.08
2023-02-19T00:09:19.044Z,2.75
2023-02-19T00:11:47.730Z,2.80
2023-02-19T00:14:18.266Z,2.65
2023-02-19T00:16:45.581Z,2.60
2023-02-19T00:19:15.211Z,2.72
2023-02-19T00:21:44.962Z,2.53
2023-02-19T00:24:13.869Z,2.42
2023-02-19T00:26:47.483Z,2.65
2023-02-19T00:29:21.608Z,3.33
2023-02-19T00:31:49.258Z,3.17
2023-02-19T00:34:16.756Z,3.95
2023-02-19T00:36:46.443Z,3.42
2023-02-19T00:39:16.263Z,3.75
2023-02-19T00:41:44.519Z,3.58
2023-02-19T00:44:13.252Z,4.47
2023-02-19T00:46:46.042Z,4.25
2023-02-19T00:49:19.848Z,4.07
2023-02-19T00:51:47.771Z,4.25
2023-02-19T00:54:15.911Z,4.45
2023-02-19T00:56:45.821Z,5.35
2023-02-19T00:59:13.381Z,4.38
2023-02-19T01:01:41.258Z,5.15
2023-02-19T01:04:08.550Z,4.30
2023-02-19T01:06:35.920Z,4.18
2023-02-19T01:09:05.085Z,5.07
2023-02-19T01:11:35.341Z,5.00
2023-02-19T01:14:03.590Z,5.03
2023-02-19T01:16:31.155Z,4.38
2023-02-19T01:19:00.998Z,4.78
2023-02-19T01:21:31.402Z,4.80
2023-02-19T01:24:01.415Z,4.10
2023-02-19T01:26:31.821Z,4.32
2023-02-19T01:29:02.585Z,3.88
2023-02-19T01:31:35.021Z,3.65
2023-02-19T01:34:03.920Z,3.67
2023-02-19T01:36:34.016Z,3.50
2023-02-19T01:39:05.684Z,3.97
2023-02-19T01:41:39.564Z,3.60
2023-02-19T01:44:15.920Z,3.63
2023-02-19T01:46:46.474Z,4.10
2023-02-19T01:49:22.722Z,2.83
2023-02-19T01:51:56.990Z,3.75
2023-02-19T01:54:28.897Z,3.55
2023-02-19T01:56:59.318Z,3.83
2023-02-19T01:59:26.729Z,3.30
2023-02-19T02:01:54.012Z,3.45
2023-02-19T02:04:21.296Z,3.20
2023-02-19T02:06:54.876Z,3.08
2023-02-19T02:09:46.542Z,3.42
2023-02-19T02:12:14.031Z,2.88
2023-02-19T02:14:47.057Z,2.58
2023-02-19T02:17:39.124Z,2.50
2023-02-19T02:20:15.240Z,2.67
2023-02-19T02:23:16.632Z,2.53
2023-02-19T02:26:25.749Z,2.50
2023-02-19T02:29:29.803Z,2.20
2023-02-19T02:32:09.497Z,2.40
2023-02-19T02:34:51.676Z,1.90
2023-02-19T02:37:19.131Z,2.00
2023-02-19T02:39:47.756Z,1.83
2023-02-19T02:42:29.542Z,1.48
2023-02-19T02:45:16.807Z,2.05
2023-02-19T02:47:53.483Z,1.33
2023-02-19T02:50:28.838Z,1.77
2023-02-19T02:53:20.746Z,1.48
2023-02-19T02:55:51.835Z,1.83
2023-02-19T02:58:22.417Z,1.55
2023-02-19T03:01:15.076Z,1.50
2023-02-19T03:03:48.110Z,1.70
2023-02-19T03:06:18.529Z,1.45
2023-02-19T03:09:00.731Z,1.20
2023-02-19T03:11:49.595Z,1.50
2023-02-19T03:14:40.263Z,1.25
2023-02-19T03:17:40.603Z,1.60
2023-02-19T03:20:13.039Z,1.10
2023-02-19T03:22:44.471Z,1.27
2023-02-19T03:25:40.513Z,1.60
2023-02-19T03:28:12.537Z,1.40
2023-02-19T03:30:54.507Z,1.30
2023-02-19T03:33:29.986Z,1.25
2023-02-19T03:36:01.046Z,1.55
2023-02-19T03:38:31.990Z,1.35
2023-02-19T03:41:23.328Z,1.20
2023-02-19T03:44:12.283Z,1.02
2023-02-19T03:46:55.174Z,1.40
2023-02-19T03:49:33.312Z,1.30
2023-02-19T03:52:09.183Z,1.58
2023-02-19T03:54:52.979Z,1.05
2023-02-19T04:00:04.155Z,1.10
2023-02-19T04:03:06.857Z,1.42
2023-02-19T04:05:40.013Z,1.30
2023-02-19T04:08:14.006Z,1.08
2023-02-19T04:10:44.179Z,1.08
2023-02-19T04:13:26.792Z,1.10
2023-02-19T04:15:57.091Z,1.33
2023-02-19T04:18:31.376Z,1.33
2023-02-19T04:21:00.804Z,1.20
2023-02-19T04:23:38.676Z,1.20
2023-02-19T04:26:09.438Z,1.30
2023-02-19T04:28:38.438Z,1.33
2023-02-19T04:31:05.969Z,1.40
2023-02-19T04:33:33.199Z,1.60
2023-02-19T04:36:00.601Z,1.15
2023-02-19T04:38:27.836Z,1.25
2023-02-19T04:40:57.744Z,1.55
2023-02-19T04:43:27.218Z,1.40
2023-02-19T04:45:56.632Z,1.08
2023-02-19T04:48:23.870Z,1.30
2023-02-19T04:50:51.167Z,1.23
2023-02-19T04:53:20.935Z,1.27
2023-02-19T04:55:48.510Z,1.30
2023-02-19T04:58:15.757Z,0.95
2023-02-19T05:00:43.021Z,1.45
2023-02-19T05:03:12.715Z,1.27
2023-02-19T05:05:42.341Z,1.13
2023-02-19T05:08:09.569Z,1.52
2023-02-19T05:10:38.916Z,1.25
2023-02-19T05:13:06.154Z,1.63
2023-02-19T05:15:33.410Z,1.23
2023-02-19T05:18:00.730Z,0.95
2023-02-19T05:20:28.012Z,1.35
2023-02-19T05:22:55.431Z,1.58
2023-02-19T05:25:24.966Z,1.60
2023-02-19T05:28:12.234Z,1.25
2023-02-19T05:30:41.741Z,1.30
2023-02-19T05:33:09.057Z,1.27
2023-02-19T05:35:41.825Z,1.20
2023-02-19T05:38:09.804Z,1.65
2023-02-19T05:40:39.839Z,1.52
2023-02-19T05:43:08.213Z,1.50
2023-02-19T05:45:36.411Z,1.60
2023-02-19T05:48:07.070Z,1.67
2023-02-19T05:50:39.901Z,1.17
2023-02-19T05:53:09.403Z,1.40
2023-02-19T05:55:37.002Z,1.30
2023-02-19T05:58:04.280Z,1.58
2023-02-19T06:00:36.035Z,1.63
2023-02-19T06:03:03.445Z,1.05
2023-02-19T06:05:30.718Z,1.30
2023-02-19T06:07:58.031Z,1.25
2023-02-19T06:10:25.303Z,1.38
2023-02-19T06:12:55.755Z,1.35
2023-02-19T06:15:25.171Z,1.33
2023-02-19T06:17:52.393Z,1.45
2023-02-19T06:20:22.220Z,1.23
2023-02-19T06:22:54.464Z,1.50
2023-02-19T06:25:23.808Z,1.40
2023-02-19T06:27:53.594Z,1.48
2023-02-19T06:30:20.827Z,1.20
2023-02-19T06:32:48.224Z,1.50
2023-02-19T06:35:17.935Z,1.38
2023-02-19T06:37:50.081Z,1.50
2023-02-19T06:40:19.853Z,1.35
2023-02-19T06:42:47.090Z,1.20
2023-02-19T06:45:15.387Z,1.50
2023-02-19T06:47:42.686Z,1.35
2023-02-19T06:50:12.437Z,1.45
2023-02-19T06:52:39.703Z,1.50
2023-02-19T06:55:06.962Z,1.02
2023-02-19T06:57:34.226Z,1.55
2023-02-19T07:00:01.439Z,0.85
2023-02-19T07:02:28.757Z,1.35
2023-02-19T07:04:58.459Z,1.38
2023-02-19T07:07:25.645Z,1.52
2023-02-19T07:09:52.875Z,1.25
2023-02-19T07:12:27.097Z,1.58
2023-02-19T07:14:56.828Z,1.92
2023-02-19T07:17:26.546Z,1.05
2023-02-19T07:19:53.868Z,1.60
2023-02-19T07:22:21.172Z,1.35
2023-02-19T07:24:53.498Z,0.98
2023-02-19T07:27:20.753Z,1.48
2023-02-19T07:29:50.602Z,1.25
2023-02-19T07:32:17.908Z,1.48
2023-02-19T07:34:47.414Z,1.52
2023-02-19T07:37:14.647Z,1.30
2023-02-19T07:39:41.905Z,1.33
2023-02-19T07:42:09.147Z,1.75
2023-02-19T07:44:36.374Z,1.27
2023-02-19T07:47:03.661Z,1.13
2023-02-19T07:49:30.984Z,1.25
2023-02-19T07:52:02.963Z,1.38
2023-02-19T07:54:30.253Z,1.15
2023-02-19T07:57:02.165Z,1.20
2023-02-19T07:59:31.894Z,1.27
2023-02-19T08:02:17.867Z,1.33
2023-02-19T08:04:47.714Z,1.23
2023-02-19T08:07:15.016Z,1.30
2023-02-19T08:09:42.265Z,1.33
2023-02-19T08:12:30.169Z,1.20
2023-02-19T08:14:57.904Z,1.25
2023-02-19T08:17:27.655Z,1.50
2023-02-19T08:19:57.262Z,1.40
2023-02-19T08:22:24.508Z,1.23
2023-02-19T08:24:54.128Z,1.60
2023-02-19T08:27:23.665Z,1.20
2023-02-19T08:29:53.374Z,1.98
2023-02-19T08:32:20.673Z,1.95
2023-02-19T08:34:47.910Z,1.85
2023-02-19T08:37:17.296Z,1.40
2023-02-19T08:39:44.523Z,1.63
2023-02-19T08:42:13.971Z,1.85
2023-02-19T08:44:43.644Z,1.50
2023-02-19T08:47:13.345Z,1.50
2023-02-19T08:49:40.644Z,1.45
2023-02-19T08:52:10.075Z,1.63
2023-02-19T08:54:37.403Z,1.88
2023-02-19T08:57:05.221Z,2.17
2023-02-19T08:59:34.946Z,1.48
2023-02-19T09:02:02.229Z,1.63
2023-02-19T09:04:34.138Z,1.40
2023-02-19T09:07:01.447Z,1.45
2023-02-19T09:09:35.646Z,1.05
2023-02-19T09:12:08.242Z,1.30
2023-02-19T09:14:35.935Z,1.73
2023-02-19T09:17:05.413Z,1.67
2023-02-19T09:19:33.385Z,1.48
2023-02-19T09:22:00.980Z,1.33
2023-02-19T09:24:32.026Z,1.85
2023-02-19T09:26:59.442Z,1.38
2023-02-19T09:29:28.185Z,1.88
2023-02-19T09:32:00.214Z,1.50
2023-02-19T09:34:28.925Z,1.75
2023-02-19T09:36:58.672Z,1.52
2023-02-19T09:39:28.168Z,1.55
2023-02-19T09:42:17.650Z,1.48
2023-02-19T09:44:49.879Z,2.33
2023-02-19T09:47:22.754Z,1.73
2023-02-19T09:49:54.626Z,1.83
2023-02-19T09:52:33.169Z,1.27
2023-02-19T09:55:16.214Z,1.63
2023-02-19T09:57:47.192Z,1.38
2023-02-19T10:00:26.239Z,1.80
2023-02-19T10:03:06.728Z,1.77
2023-02-19T10:05:38.931Z,1.35
2023-02-19T10:08:12.732Z,2.10
2023-02-19T10:10:41.487Z,1.92
2023-02-19T10:13:19.991Z,1.85
2023-02-19T10:15:56.480Z,1.83
2023-02-19T10:18:31.600Z,1.98
2023-02-19T10:20:59.011Z,1.83
2023-02-19T10:23:29.289Z,1.92
2023-02-19T10:26:01.923Z,1.95
2023-02-19T10:28:33.773Z,3.03
2023-02-19T10:31:04.218Z,2.63
2023-02-19T10:33:32.094Z,2.72
2023-02-19T10:36:03.313Z,2.67
2023-02-19T10:38:30.479Z,3.22
2023-02-19T10:41:04.790Z,2.47
2023-02-19T10:43:39.904Z,2.72
2023-02-19T10:46:16.685Z,2.83
2023-02-19T10:49:05.783Z,3.33
2023-02-19T10:51:41.563Z,2.10
2023-02-19T10:54:36.458Z,1.70
2023-02-19T10:57:15.605Z,2.78
2023-02-19T10:59:51.291Z,2.55
2023-02-19T11:02:21.322Z,2.00
2023-02-19T11:05:17.026Z,2.10
2023-02-19T11:07:53.574Z,2.22
2023-02-19T11:10:52.832Z,2.58
2023-02-19T11:13:32.425Z,2.10
2023-02-19T11:16:00.643Z,2.53
2023-02-19T11:18:30.780Z,2.45
2023-02-19T11:21:04.077Z,2.28
2023-02-19T11:23:47.272Z,2.00
2023-02-19T11:26:23.282Z,2.72
2023-02-19T11:29:04.367Z,2.90
2023-02-19T11:31:36.137Z,3.20
2023-02-19T11:34:26.148Z,3.85
2023-02-19T11:37:13.639Z,3.65
2023-02-19T11:39:46.500Z,3.80
2023-02-19T11:43:11.034Z,3.72
2023-02-19T11:45:49.591Z,4.07
2023-02-19T11:48:20.194Z,3.50
2023-02-19T11:51:03.960Z,3.28
2023-02-19T11:53:38.385Z,3.30
2023-02-19T11:56:27.940Z,2.50
2023-02-19T11:59:18.668Z,2.30
2023-02-19T12:02:14.155Z,2.42
2023-02-19T12:05:12.457Z,2.63
2023-02-19T12:08:05.729Z,3.85
2023-02-19T12:10:57.132Z,3.53
2023-02-19T12:13:39.440Z,3.10
2023-02-19T12:16:18.056Z,2.92
2023-02-19T12:19:09.836Z,2.47
2023-02-19T12:21:51.507Z,3.35
2023-02-19T12:24:46.887Z,3.80
2023-02-19T12:27:34.422Z,4.05
2023-02-19T12:30:40.619Z,3.85
2023-02-19T12:33:22.966Z,4.20
2023-02-19T12:36:00.393Z,4.80
2023-02-19T12:38:35.455Z,4.70
2023-02-19T12:41:15.616Z,5.05
2023-02-19T12:44:09.619Z,4.40
2023-02-19T12:46:42.444Z,4.32
2023-02-19T12:49:19.626Z,4.53
2023-02-19T12:51:55.206Z,4.28
2023-02-19T12:54:28.021Z,3.70
2023-02-19T12:57:01.677Z,4.55
2023-02-19T12:59:49.364Z,4.10
2023-02-19T13:02:26.693Z,4.32
2023-02-19T13:05:20.607Z,4.90
2023-02-19T13:08:02.322Z,5.00
2023-02-19T13:10:32.379Z,5.03
2023-02-19T13:13:06.358Z,4.40
2023-02-19T13:15:46.240Z,4.10
2023-02-19T13:18:27.908Z,3.60
2023-02-19T13:20:58.006Z,3.65
2023-02-19T13:23:51.453Z,3.47
2023-02-19T13:26:56.019Z,3.20
2023-02-19T13:29:42.777Z,4.95
2023-02-19T13:32:20.791Z,5.10
2023-02-19T13:34:48.063Z,5.25
2023-02-19T13:37:17.004Z,5.22
2023-02-19T13:39:55.526Z,5.53
2023-02-19T13:42:33.537Z,5.38
2023-02-19T13:45:03.176Z,5.40
2023-02-19T13:47:49.252Z,4.82
2023-02-19T13:50:28.293Z,4.97
2023-02-19T13:52:57.601Z,5.10
2023-02-19T13:55:42.765Z,4.68
2023-02-19T13:58:40.222Z,4.15
2023-02-19T14:01:13.912Z,4.32
2023-02-19T14:04:06.876Z,4.10
2023-02-19T14:07:03.096Z,3.47
2023-02-19T14:09:45.882Z,3.30
2023-02-19T14:12:15.515Z,3.60
2023-02-19T14:14:55.806Z,2.78
2023-02-19T14:17:35.438Z,3.42
2023-02-19T14:20:11.847Z,2.22
2023-02-19T14:23:01.303Z,3.08
2023-02-19T14:25:34.315Z,3.00
2023-02-19T14:28:17.361Z,2.40
2023-02-19T14:30:50.567Z,2.42
2023-02-19T14:33:26.300Z,2.08
2023-02-19T14:36:18.386Z,2.10
2023-02-19T14:38:53.434Z,2.58
2023-02-19T14:41:23.379Z,2.08
2023-02-19T14:43:56.073Z,1.95
2023-02-19T14:46:41.449Z,1.63
2023-02-19T14:49:42.505Z,1.17
2023-02-19T14:52:33.675Z,1.60
2023-02-19T14:55:04.160Z,1.30
2023-02-19T14:57:35.762Z,1.35
2023-02-19T15:00:24.571Z,1.70
2023-02-19T15:02:56.752Z,1.27
2023-02-19T15:05:29.954Z,1.40
2023-02-19T15:08:03.203Z,1.33
2023-02-19T15:10:32.386Z,1.13
2023-02-19T15:13:06.029Z,1.20
2023-02-19T15:15:37.479Z,1.17
2023-02-19T15:18:05.636Z,1.27
2023-02-19T15:20:37.813Z,1.38
2023-02-19T15:23:07.469Z,1.33
2023-02-19T15:25:37.891Z,1.27
2023-02-19T15:28:21.600Z,1.90
2023-02-19T15:30:51.278Z,1.70
2023-02-19T15:33:20.373Z,1.23
2023-02-19T15:35:53.373Z,1.85
2023-02-19T15:38:20.789Z,2.55
2023-02-19T15:40:49.402Z,1.90
2023-02-19T15:43:30.348Z,1.73
2023-02-19T15:46:14.786Z,1.40
2023-02-19T15:49:17.320Z,1.13
2023-02-19T15:51:56.644Z,1.20
2023-02-19T15:54:32.484Z,0.88
2023-02-19T15:57:05.732Z,0.68
2023-02-19T15:59:36.484Z,0.95
2023-02-19T16:02:04.838Z,1.20
2023-02-19T16:04:34.340Z,1.00
2023-02-19T16:07:03.712Z,1.25
2023-02-19T16:09:38.312Z,1.30
2023-02-19T16:12:25.230Z,1.20
2023-02-19T16:14:53.817Z,1.00
2023-02-19T16:17:23.172Z,1.08
2023-02-19T16:20:02.067Z,1.10
2023-02-19T16:22:32.014Z,1.17
2023-02-19T16:25:06.648Z,1.30
2023-02-19T16:27:35.871Z,1.02
2023-02-19T16:30:38.392Z,1.15
2023-02-19T16:33:28.669Z,1.50
2023-02-19T16:35:58.892Z,1.48
2023-02-19T16:38:26.289Z,1.70
2023-02-19T16:41:06.749Z,1.33
2023-02-19T16:43:44.766Z,1.65
2023-02-19T16:46:13.680Z,1.50
2023-02-19T16:48:43.525Z,1.40
2023-02-19T16:51:21.758Z,1.65
2023-02-19T16:53:49.001Z,1.80
2023-02-19T16:56:21.161Z,2.05
2023-02-19T16:58:51.617Z,1.70
2023-02-19T17:01:19.092Z,1.20
2023-02-19T17:03:49.202Z,1.90
2023-02-19T17:06:16.860Z,1.40
2023-02-19T17:08:44.850Z,1.08
2023-02-19T17:11:15.053Z,1.15
2023-02-19T17:13:46.267Z,1.10
2023-02-19T17:16:28.504Z,1.45
2023-02-19T17:18:56.087Z,1.40
2023-02-19T17:21:28.763Z,1.63
2023-02-19T17:23:57.089Z,1.30
2023-02-19T17:26:28.042Z,1.83
2023-02-19T17:29:04.397Z,2.03
2023-02-19T17:31:34.663Z,1.80
2023-02-19T17:34:01.959Z,1.90
2023-02-19T17:36:31.259Z,1.60
2023-02-19T17:39:03.825Z,2.10
2023-02-19T17:41:33.430Z,1.63
2023-02-19T17:44:00.673Z,1.58
2023-02-19T17:46:28.119Z,1.58
2023-02-19T17:49:00.059Z,1.70
2023-02-19T17:51:28.008Z,1.75
2023-02-19T17:53:55.306Z,1.90
2023-02-19T17:56:25.635Z,1.90
2023-02-19T17:58:53.661Z,1.65
2023-02-19T18:01:23.918Z,1.67
2023-02-19T18:03:53.726Z,1.60
2023-02-19T18:06:23.208Z,2.05
2023-02-19T18:08:54.841Z,1.58
2023-02-19T18:11:23.668Z,1.85
2023-02-19T18:13:52.328Z,1.50
2023-02-19T18:16:20.075Z,1.70
2023-02-19T18:18:47.480Z,1.60
2023-02-19T18:21:17.247Z,1.52
2023-02-19T18:23:46.872Z,1.77
2023-02-19T18:26:19.814Z,1.73
2023-02-19T18:28:47.140Z,1.90
2023-02-19T18:31:14.709Z,2.15
2023-02-19T18:33:45.151Z,2.17
2023-02-19T18:36:13.003Z,2.28
2023-02-19T18:38:45.676Z,2.17
2023-02-19T18:41:20.262Z,2.00
2023-02-19T18:43:48.313Z,2.17
2023-02-19T18:46:16.116Z,2.08
2023-02-19T18:48:46.702Z,2.67
2023-02-19T18:51:14.098Z,2.15
2023-02-19T18:53:43.276Z,2.53
2023-02-19T18:56:10.541Z,2.58
2023-02-19T18:58:40.357Z,2.85
2023-02-19T19:01:12.739Z,2.70
2023-02-19T19:03:42.497Z,3.00
2023-02-19T19:06:12.381Z,2.95
2023-02-19T19:08:39.645Z,2.63
2023-02-19T19:11:09.317Z,2.78
2023-02-19T19:13:39.042Z,3.05
2023-02-19T19:16:06.545Z,3.38
2023-02-19T19:18:38.079Z,3.15
2023-02-19T19:21:09.681Z,3.28
2023-02-19T19:23:37.088Z,3.47
2023-02-19T19:26:10.679Z,3.10
2023-02-19T19:28:44.510Z,4.70
2023-02-19T19:33:40.639Z,3.65
2023-02-19T19:36:09.185Z,4.35
2023-02-19T19:38:37.004Z,3.72
2023-02-19T19:41:05.825Z,3.95
2023-02-19T19:43:35.785Z,4.30
2023-02-19T19:46:10.050Z,4.68
2023-02-19T19:48:39.837Z,5.07
2023-02-19T19:51:08.129Z,5.47
2023-02-19T19:53:40.583Z,4.60
2023-02-19T19:56:10.801Z,8.60
2023-02-19T19:58:40.514Z,7.28
2023-02-19T20:01:12.454Z,7.68
2023-02-19T20:03:42.816Z,6.55
2023-02-19T20:06:10.088Z,5.50
2023-02-19T20:08:37.322Z,7.65
2023-02-19T20:11:07.277Z,6.65
2023-02-19T20:13:34.574Z,4.85
2023-02-19T20:16:04.338Z,8.13
2023-02-19T20:18:31.573Z,6.97
2023-02-19T20:21:01.444Z,4.50
2023-02-19T20:23:28.716Z,4.28
2023-02-19T20:25:57.852Z,4.28
2023-02-19T20:28:25.140Z,4.60
2023-02-19T20:30:52.425Z,5.05
2023-02-19T20:33:22.208Z,5.75
2023-02-19T20:35:49.470Z,6.28
2023-02-19T20:38:17.240Z,5.78
2023-02-19T20:40:44.529Z,4.85
2023-02-19T20:43:14.111Z,5.25
2023-02-19T20:45:43.082Z,5.45
2023-02-19T20:48:13.253Z,5.30
2023-02-19T20:50:43.062Z,5.25
2023-02-19T20:53:17.282Z,5.13
2023-02-19T20:55:44.659Z,5.00
2023-02-19T20:58:12.011Z,4.50
2023-02-19T21:00:41.441Z,5.15
2023-02-19T21:03:11.717Z,4.93
2023-02-19T21:05:44.210Z,5.07
2023-02-19T21:08:11.825Z,5.90
2023-02-19T21:10:41.440Z,5.40
2023-02-19T21:13:08.698Z,4.93
2023-02-19T21:15:38.184Z,5.55
2023-02-19T21:18:08.004Z,5.22
2023-02-19T21:20:37.474Z,5.15
2023-02-19T21:23:04.797Z,5.50
2023-02-19T21:25:33.178Z,4.88
2023-02-19T21:28:00.499Z,5.10
2023-02-19T21:30:30.218Z,4.65
2023-02-19T21:32:57.623Z,4.28
2023-02-19T21:35:24.866Z,4.40
2023-02-19T21:37:54.333Z,4.55
2023-02-19T21:40:23.388Z,4.25
2023-02-19T21:42:50.663Z,5.18
2023-02-19T21:45:17.942Z,4.95
2023-02-19T21:47:46.715Z,4.47
2023-02-19T21:50:13.983Z,3.85
2023-02-19T21:52:43.685Z,4.90
2023-02-19T21:55:13.278Z,4.68
2023-02-19T21:57:43.472Z,4.97
2023-02-19T22:00:11.308Z,4.80
2023-02-19T22:02:40.918Z,4.75
2023-02-19T22:05:08.312Z,4.75
2023-02-19T22:07:38.194Z,4.60
2023-02-19T22:10:07.898Z,4.43
2023-02-19T22:12:39.623Z,4.50
2023-02-19T22:15:07.198Z,5.30
2023-02-19T22:17:36.828Z,5.03
2023-02-19T22:20:04.917Z,4.35
2023-02-19T22:22:34.611Z,5.53
2023-02-19T22:25:03.966Z,5.53
2023-02-19T22:27:33.681Z,5.05
2023-02-19T22:30:01.022Z,5.43
2023-02-19T22:32:33.160Z,5.35
2023-02-19T22:35:00.498Z,6.30
2023-02-19T22:37:29.700Z,5.78
2023-02-19T22:39:56.911Z,6.65
2023-02-19T22:42:25.285Z,5.55
2023-02-19T22:44:52.589Z,5.88
2023-02-19T22:47:22.100Z,6.10
2023-02-19T22:49:49.370Z,6.75
2023-02-19T22:52:16.673Z,6.82
2023-02-19T22:54:49.712Z,6.15
2023-02-19T22:57:16.953Z,6.22
2023-02-19T22:59:46.751Z,6.53
2023-02-19T23:02:14.036Z,7.30
2023-02-19T23:04:43.463Z,6.28
2023-02-19T23:07:12.947Z,6.65
2023-02-19T23:09:40.235Z,6.65
2023-02-19T23:12:10.525Z,6.68
2023-02-19T23:14:38.269Z,7.10
2023-02-19T23:17:05.571Z,7.18
2023-02-19T23:19:33.018Z,7.13
2023-02-19T23:22:00.419Z,7.00
2023-02-19T23:24:29.862Z,6.97
2023-02-19T23:26:57.677Z,7.68
2023-02-19T23:29:26.676Z,7.00
2023-02-19T23:31:54.709Z,7.13
2023-02-19T23:34:22.989Z,7.82
2023-02-19T23:36:51.060Z,7.00
2023-02-19T23:39:21.439Z,7.13
2023-02-19T23:41:53.976Z,7.10
2023-02-19T23:44:25.012Z,6.93
2023-02-19T23:46:52.816Z,6.25
2023-02-19T23:49:20.535Z,6.05
2023-02-19T23:51:47.944Z,7.03
2023-02-19T23:54:17.677Z,6.55
2023-02-19T23:56:47.372Z,6.45
2023-02-19T23:59:15.504Z,6.07
